createdAt,value
2019-05-11T00:02:00.490Z,29.52
2019-05-11T00:04:29.480Z,26.15
2019-05-11T00:06:58.407Z,26.70
2019-05-11T00:09:27.367Z,27.55
2019-05-11T00:11:56.351Z,27.73
2019-05-11T00:14:26.630Z,29.85
2019-05-11T00:16:55.247Z,29.55
2019-05-11T00:19:24.046Z,28.83
2019-05-11T00:21:52.968Z,27.30
2019-05-11T00:24:22.638Z,28.65
2019-05-11T00:26:51.561Z,29.60
2019-05-11T00:29:20.493Z,29.50
2019-05-11T00:31:49.176Z,28.17
2019-05-11T00:34:17.885Z,29.12
2019-05-11T00:36:46.585Z,26.62
2019-05-11T00:39:15.271Z,29.42
2019-05-11T00:41:44.269Z,29.02
2019-05-11T00:44:13.091Z,30.72
2019-05-11T00:46:41.854Z,28.75
2019-05-11T00:49:10.981Z,31.25
2019-05-11T00:51:39.665Z,29.10
2019-05-11T00:54:08.354Z,29.12
2019-05-11T00:56:37.036Z,31.60
2019-05-11T00:59:20.692Z,33.53
2019-05-11T01:01:36.223Z,28.57
2019-05-11T01:04:05.057Z,33.13
2019-05-11T01:06:33.738Z,33.98
2019-05-11T01:09:02.595Z,32.53
2019-05-11T01:11:31.523Z,31.87
2019-05-11T01:14:00.219Z,29.00
2019-05-11T01:16:28.921Z,30.23
2019-05-11T01:18:57.614Z,32.88
2019-05-11T01:21:26.365Z,31.23
2019-05-11T01:23:55.831Z,30.37
2019-05-11T01:26:24.606Z,31.27
2019-05-11T01:28:53.547Z,30.95
2019-05-11T01:31:22.259Z,32.13
2019-05-11T01:33:52.549Z,30.25
2019-05-11T01:36:21.230Z,30.12
2019-05-11T01:38:50.182Z,32.15
2019-05-11T01:41:18.874Z,32.65
2019-05-11T01:43:47.596Z,34.15
2019-05-11T01:46:16.531Z,31.48
2019-05-11T01:48:45.577Z,32.58
2019-05-11T01:51:14.514Z,33.95
2019-05-11T01:53:43.707Z,31.60
2019-05-11T01:56:12.420Z,30.60
2019-05-11T01:58:41.099Z,33.05
2019-05-11T02:01:10.281Z,31.20
2019-05-11T02:03:39.803Z,32.03
2019-05-11T02:06:08.736Z,33.45
2019-05-11T02:08:37.447Z,28.52
2019-05-11T02:11:15.567Z,30.12
2019-05-11T02:13:36.802Z,30.60
2019-05-11T02:16:05.811Z,30.60
2019-05-11T02:18:34.835Z,31.10
2019-05-11T02:21:04.018Z,32.17
2019-05-11T02:23:32.946Z,32.48
2019-05-11T02:26:01.997Z,34.60
2019-05-11T02:28:30.952Z,31.93
2019-05-11T02:30:59.896Z,31.68
2019-05-11T02:33:28.629Z,31.82
2019-05-11T02:35:57.574Z,32.88
2019-05-11T02:38:26.260Z,32.93
2019-05-11T02:40:55.244Z,34.38
2019-05-11T02:43:24.398Z,31.30
2019-05-11T02:45:53.421Z,35.00
2019-05-11T02:48:22.430Z,30.62
2019-05-11T02:50:52.210Z,31.60
2019-05-11T02:53:21.939Z,33.65
2019-05-11T02:55:51.796Z,32.75
2019-05-11T02:58:20.543Z,33.00
2019-05-11T03:00:49.418Z,34.30
2019-05-11T03:03:18.369Z,32.67
2019-05-11T03:05:47.306Z,32.38
2019-05-11T03:08:16.227Z,33.88
2019-05-11T03:10:45.178Z,35.10
2019-05-11T03:13:16.814Z,34.83
2019-05-11T03:15:45.981Z,30.72
2019-05-11T03:18:14.919Z,32.63
2019-05-11T03:20:43.601Z,35.92
2019-05-11T03:23:12.747Z,34.67
2019-05-11T03:25:41.712Z,32.73
2019-05-11T03:28:10.639Z,34.58
2019-05-11T03:30:39.589Z,36.15
2019-05-11T03:33:08.343Z,34.58
2019-05-11T03:35:37.056Z,38.48
2019-05-11T03:38:05.827Z,35.70
2019-05-11T03:40:34.717Z,36.25
2019-05-11T03:43:03.430Z,34.45
2019-05-11T03:45:33.672Z,37.80
2019-05-11T03:48:02.601Z,39.40
2019-05-11T03:50:31.310Z,39.38
2019-05-11T03:53:00.253Z,42.98
2019-05-11T03:55:28.951Z,41.48
2019-05-11T03:57:57.613Z,40.12
2019-05-11T04:00:26.477Z,39.70
2019-05-11T04:02:55.448Z,38.48
2019-05-11T04:05:24.629Z,37.83
2019-05-11T04:07:53.317Z,38.35
2019-05-11T04:10:25.104Z,37.83
2019-05-11T04:12:54.650Z,37.20
2019-05-11T04:15:23.391Z,39.55
2019-05-11T04:17:52.308Z,39.80
2019-05-11T04:20:20.997Z,36.03
2019-05-11T04:22:49.932Z,40.52
2019-05-11T04:25:18.620Z,38.28
2019-05-11T04:27:47.566Z,37.85
2019-05-11T04:30:16.874Z,35.98
2019-05-11T04:32:45.810Z,39.65
2019-05-11T04:35:16.943Z,33.88
2019-05-11T04:37:46.186Z,35.97
2019-05-11T04:40:15.250Z,34.90
2019-05-11T04:42:55.065Z,37.00
2019-05-11T04:45:14.785Z,36.17
2019-05-11T04:47:43.470Z,35.40
2019-05-11T04:50:12.833Z,34.03
2019-05-11T04:52:41.575Z,35.70
2019-05-11T04:55:10.617Z,33.33
2019-05-11T04:57:39.554Z,34.20
2019-05-11T05:00:08.938Z,35.63
2019-05-11T05:02:37.867Z,34.67
2019-05-11T05:05:06.867Z,36.58
2019-05-11T05:07:35.541Z,32.83
2019-05-11T05:10:04.338Z,32.13
2019-05-11T05:12:33.277Z,32.83
2019-05-11T05:15:02.442Z,35.23
2019-05-11T05:17:31.140Z,37.00
2019-05-11T05:20:00.372Z,33.80
2019-05-11T05:22:29.035Z,32.40
2019-05-11T05:24:57.713Z,37.93
2019-05-11T05:27:26.431Z,35.95
2019-05-11T05:29:55.085Z,35.33
2019-05-11T05:32:24.269Z,34.23
2019-05-11T05:34:53.453Z,31.93
2019-05-11T05:37:22.623Z,36.73
2019-05-11T05:39:51.571Z,37.35
2019-05-11T05:42:20.518Z,36.28
2019-05-11T05:44:49.748Z,37.78
2019-05-11T05:47:18.713Z,43.63
2019-05-11T05:49:47.607Z,40.70
2019-05-11T05:52:16.779Z,39.35
2019-05-11T05:54:45.955Z,45.17
2019-05-11T05:57:14.655Z,45.75
2019-05-11T05:59:43.847Z,40.78
2019-05-11T06:02:15.601Z,40.20
2019-05-11T06:04:44.807Z,42.35
2019-05-11T06:07:13.490Z,42.88
2019-05-11T06:09:42.184Z,42.55
2019-05-11T06:12:11.156Z,44.95
2019-05-11T06:14:39.927Z,47.23
2019-05-11T06:17:08.587Z,44.05
2019-05-11T06:19:38.057Z,44.98
2019-05-11T06:22:07.164Z,41.80
2019-05-11T06:24:36.347Z,43.45
2019-05-11T06:27:07.339Z,41.70
2019-05-11T06:29:36.131Z,43.73
2019-05-11T06:32:05.084Z,44.33
2019-05-11T06:34:34.022Z,42.58
2019-05-11T06:37:05.328Z,41.88
2019-05-11T06:39:34.238Z,41.77
2019-05-11T06:42:02.986Z,41.70
2019-05-11T06:44:31.684Z,41.73
2019-05-11T06:47:00.439Z,38.17
2019-05-11T06:49:29.369Z,42.93
2019-05-11T06:51:58.061Z,45.48
2019-05-11T06:54:27.012Z,45.90
2019-05-11T06:56:55.733Z,47.17
2019-05-11T06:59:27.584Z,46.13
2019-05-11T07:01:56.555Z,44.77
2019-05-11T07:04:25.251Z,43.75
2019-05-11T07:06:54.475Z,45.03
2019-05-11T07:09:23.678Z,46.80
2019-05-11T07:11:52.625Z,45.35
2019-05-11T07:14:21.740Z,40.43
2019-05-11T07:16:50.506Z,42.93
2019-05-11T07:19:19.419Z,45.38
2019-05-11T07:21:48.610Z,45.60
2019-05-11T07:24:17.363Z,43.92
2019-05-11T07:26:46.305Z,47.23
2019-05-11T07:29:16.657Z,44.15
2019-05-11T07:31:45.835Z,40.73
2019-05-11T07:34:14.524Z,35.28
2019-05-11T07:36:43.258Z,41.65
2019-05-11T07:39:11.948Z,33.53
2019-05-11T07:41:40.665Z,37.30
2019-05-11T07:44:10.171Z,32.08
2019-05-11T07:46:39.166Z,30.23
2019-05-11T07:49:11.130Z,33.65
2019-05-11T07:51:39.846Z,29.07
2019-05-11T07:54:08.679Z,33.13
2019-05-11T07:56:38.992Z,28.42
2019-05-11T07:59:08.136Z,30.23
2019-05-11T08:01:38.664Z,28.95
2019-05-11T08:04:07.928Z,30.57
2019-05-11T08:06:38.931Z,30.10
2019-05-11T08:09:08.384Z,33.13
2019-05-11T08:11:38.923Z,35.33
2019-05-11T08:14:07.941Z,37.42
2019-05-11T08:16:39.072Z,33.45
2019-05-11T08:19:10.625Z,36.53
2019-05-11T08:21:38.871Z,32.33
2019-05-11T08:24:09.133Z,35.38
2019-05-11T08:26:38.665Z,35.80
2019-05-11T08:29:08.220Z,37.30
2019-05-11T08:31:38.412Z,34.05
2019-05-11T08:34:08.838Z,35.17
2019-05-11T08:36:38.054Z,34.50
2019-05-11T08:39:08.038Z,33.18
2019-05-11T08:41:38.499Z,29.87
2019-05-11T08:44:08.954Z,32.08
2019-05-11T08:46:38.537Z,32.95
2019-05-11T08:49:08.616Z,32.55
2019-05-11T08:51:38.646Z,31.62
2019-05-11T08:54:09.016Z,32.28
2019-05-11T08:56:38.386Z,30.90
2019-05-11T08:59:08.117Z,33.55
2019-05-11T09:01:39.280Z,35.10
2019-05-11T09:04:08.965Z,32.75
2019-05-11T09:06:37.886Z,37.03
2019-05-11T09:09:08.939Z,37.65
2019-05-11T09:11:38.914Z,38.58
2019-05-11T09:14:08.491Z,38.48
2019-05-11T09:16:38.470Z,38.17
2019-05-11T09:19:08.735Z,33.55
2019-05-11T09:21:38.424Z,34.05
2019-05-11T09:24:08.448Z,32.10
2019-05-11T09:26:38.816Z,32.53
2019-05-11T09:29:08.697Z,30.05
2019-05-11T09:31:38.187Z,25.77
2019-05-11T09:34:08.967Z,24.80
2019-05-11T09:36:38.867Z,24.25
2019-05-11T09:39:08.761Z,29.95
2019-05-11T09:41:38.335Z,26.95
2019-05-11T09:44:08.996Z,26.35
2019-05-11T09:46:38.420Z,19.32
2019-05-11T09:49:08.157Z,20.72
2019-05-11T09:51:38.117Z,19.75
2019-05-11T09:54:07.928Z,15.53
2019-05-11T09:56:38.146Z,16.05
2019-05-11T09:59:08.843Z,18.35
2019-05-11T10:01:37.992Z,16.67
2019-05-11T10:04:09.016Z,18.00
2019-05-11T10:06:38.954Z,15.98
2019-05-11T10:09:08.279Z,13.38
2019-05-11T10:11:39.702Z,14.78
2019-05-11T10:14:08.364Z,16.40
2019-05-11T10:16:38.702Z,17.30
2019-05-11T10:19:08.451Z,15.83
2019-05-11T10:21:38.442Z,11.88
2019-05-11T10:24:08.603Z,14.13
2019-05-11T10:26:38.478Z,13.18
2019-05-11T10:29:07.977Z,10.85
2019-05-11T10:31:38.591Z,11.15
2019-05-11T10:34:08.651Z,14.18
2019-05-11T10:36:41.418Z,12.28
2019-05-11T10:39:10.591Z,17.62
2019-05-11T10:41:39.549Z,16.10
2019-05-11T10:44:08.440Z,16.95
2019-05-11T10:46:38.098Z,14.47
2019-05-11T10:49:08.044Z,17.05
2019-05-11T10:51:38.542Z,11.53
2019-05-11T10:54:08.885Z,14.95
2019-05-11T10:56:38.884Z,12.50
2019-05-11T10:59:08.099Z,11.83
2019-05-11T11:01:38.103Z,12.37
2019-05-11T11:04:09.037Z,10.10
2019-05-11T11:06:38.627Z,13.70
2019-05-11T11:09:09.135Z,14.98
2019-05-11T11:11:38.432Z,17.85
2019-05-11T11:14:08.758Z,10.72
2019-05-11T11:16:42.437Z,10.63
2019-05-11T11:19:08.346Z,10.80
2019-05-11T11:21:38.357Z,11.25
2019-05-11T11:24:07.732Z,13.40
2019-05-11T11:26:37.981Z,14.90
2019-05-11T11:29:08.568Z,14.15
2019-05-11T11:31:38.145Z,10.63
2019-05-11T11:34:08.225Z,14.80
2019-05-11T11:36:37.665Z,10.18
2019-05-11T11:39:08.348Z,11.35
2019-05-11T11:41:37.990Z,7.92
2019-05-11T11:44:07.855Z,11.28
2019-05-11T11:46:50.960Z,13.58
2019-05-11T11:49:08.328Z,15.88
2019-05-11T11:51:37.857Z,12.45
2019-05-11T11:54:08.791Z,14.00
2019-05-11T11:56:38.107Z,14.43
2019-05-11T11:59:08.553Z,14.65
2019-05-11T12:01:38.402Z,13.72
2019-05-11T12:04:08.259Z,10.60
2019-05-11T12:06:38.604Z,10.82
2019-05-11T12:09:08.982Z,9.28
2019-05-11T12:11:38.293Z,18.27
2019-05-11T12:14:08.703Z,9.00
2019-05-11T12:16:38.882Z,12.70
2019-05-11T12:19:08.592Z,13.72
2019-05-11T12:21:37.947Z,13.75
2019-05-11T12:24:08.187Z,12.07
2019-05-11T12:26:38.859Z,16.60
2019-05-11T12:29:08.263Z,11.70
2019-05-11T12:31:38.047Z,13.62
2019-05-11T12:34:08.812Z,12.98
2019-05-11T12:36:38.747Z,11.05
2019-05-11T12:39:08.568Z,13.05
2019-05-11T12:41:38.720Z,16.07
2019-05-11T12:44:08.376Z,15.80
2019-05-11T12:46:39.541Z,12.80
2019-05-11T12:49:08.675Z,13.88
2019-05-11T12:51:38.364Z,18.98
2019-05-11T12:54:08.244Z,21.25
2019-05-11T12:56:38.289Z,15.35
2019-05-11T12:59:08.279Z,20.50
2019-05-11T13:01:38.119Z,16.57
2019-05-11T13:04:09.074Z,14.47
2019-05-11T13:06:38.502Z,19.02
2019-05-11T13:09:08.378Z,13.72
2019-05-11T13:11:37.994Z,18.30
2019-05-11T13:14:08.012Z,15.85
2019-05-11T13:16:37.997Z,16.65
2019-05-11T13:19:08.335Z,16.52
2019-05-11T13:21:38.215Z,14.95
2019-05-11T13:24:08.350Z,20.20
2019-05-11T13:26:38.220Z,19.07
2019-05-11T13:29:07.814Z,15.48
2019-05-11T13:31:38.382Z,16.52
2019-05-11T13:34:08.369Z,20.20
2019-05-11T13:36:38.343Z,17.42
2019-05-11T13:39:08.950Z,15.68
2019-05-11T13:41:40.639Z,16.50
2019-05-11T13:44:09.320Z,17.02
2019-05-11T13:46:38.835Z,18.27
2019-05-11T13:49:08.542Z,17.40
2019-05-11T13:51:38.830Z,24.65
2019-05-11T13:54:08.134Z,19.55
2019-05-11T13:56:37.936Z,18.67
2019-05-11T13:59:10.814Z,17.37
2019-05-11T14:01:40.051Z,16.12
2019-05-11T14:04:08.789Z,19.35
2019-05-11T14:06:37.897Z,15.70
2019-05-11T14:09:08.670Z,13.72
2019-05-11T14:11:39.023Z,16.85
2019-05-11T14:14:08.246Z,16.10
2019-05-11T14:16:37.937Z,16.27
2019-05-11T14:19:08.613Z,17.23
2019-05-11T14:21:38.483Z,16.00
2019-05-11T14:24:07.968Z,18.77
2019-05-11T14:26:38.576Z,16.62
2019-05-11T14:29:08.456Z,15.70
2019-05-11T14:31:38.737Z,17.20
2019-05-11T14:34:08.828Z,12.45
2019-05-11T14:36:38.718Z,14.60
2019-05-11T14:39:08.652Z,13.43
2019-05-11T14:41:38.323Z,12.33
2019-05-11T14:44:08.801Z,12.93
2019-05-11T14:46:38.432Z,15.48
2019-05-11T14:49:07.964Z,11.35
2019-05-11T14:51:39.163Z,12.98
2019-05-11T14:54:08.382Z,14.93
2019-05-11T14:56:38.223Z,16.42
2019-05-11T14:59:09.064Z,18.37
2019-05-11T15:01:38.381Z,17.23
2019-05-11T15:04:09.107Z,18.40
2019-05-11T15:06:38.652Z,11.88
2019-05-11T15:09:08.533Z,13.60
2019-05-11T15:11:38.822Z,12.90
2019-05-11T15:14:08.281Z,16.48
2019-05-11T15:16:38.395Z,14.30
2019-05-11T15:19:08.006Z,16.73
2019-05-11T15:21:38.721Z,10.60
2019-05-11T15:24:09.060Z,14.80
2019-05-11T15:26:38.315Z,13.25
2019-05-11T15:29:08.206Z,14.43
2019-05-11T15:31:38.036Z,12.18
2019-05-11T15:34:08.476Z,12.07
2019-05-11T15:36:38.683Z,12.88
2019-05-11T15:39:08.081Z,13.18
2019-05-11T15:41:38.878Z,13.10
2019-05-11T15:44:11.404Z,11.05
2019-05-11T15:46:39.034Z,12.68
2019-05-11T15:49:08.792Z,12.37
2019-05-11T15:51:41.045Z,11.53
2019-05-11T15:54:08.494Z,17.35
2019-05-11T15:56:38.488Z,20.75
2019-05-11T15:59:08.616Z,12.35
2019-05-11T16:01:40.941Z,14.40
2019-05-11T16:04:09.154Z,10.80
2019-05-11T16:06:40.210Z,11.95
2019-05-11T16:09:09.252Z,14.18
2019-05-11T16:11:38.784Z,13.90
2019-05-11T16:14:08.812Z,14.87
2019-05-11T16:16:39.000Z,15.50
2019-05-11T16:19:13.977Z,16.42
2019-05-11T16:21:38.628Z,13.30
2019-05-11T16:24:09.516Z,13.22
2019-05-11T16:26:38.472Z,15.15
2019-05-11T16:29:08.535Z,13.75
2019-05-11T16:31:39.257Z,15.95
2019-05-11T16:34:08.214Z,15.58
2019-05-11T16:36:38.884Z,18.17
2019-05-11T16:39:10.523Z,14.03
2019-05-11T16:41:39.576Z,14.38
2019-05-11T16:44:08.548Z,11.03
2019-05-11T16:46:38.970Z,20.12
2019-05-11T16:49:09.467Z,12.98
2019-05-11T16:51:39.003Z,17.15
2019-05-11T16:54:07.901Z,16.82
2019-05-11T16:56:38.335Z,22.07
2019-05-11T16:59:08.280Z,13.48
2019-05-11T17:01:38.047Z,15.75
2019-05-11T17:04:06.940Z,16.62
2019-05-11T17:06:38.311Z,12.78
2019-05-11T17:09:08.956Z,12.68
2019-05-11T17:11:38.431Z,13.53
2019-05-11T17:14:08.299Z,12.28
2019-05-11T17:16:38.512Z,11.70
2019-05-11T17:19:08.090Z,7.50
2019-05-11T17:21:38.026Z,8.78
2019-05-11T17:24:07.123Z,10.45
2019-05-11T17:26:38.356Z,10.40
2019-05-11T17:29:06.470Z,10.05
2019-05-11T17:31:37.860Z,10.35
2019-05-11T17:34:08.771Z,10.60
2019-05-11T17:36:36.852Z,10.40
2019-05-11T17:39:07.729Z,8.65
2019-05-11T17:41:38.648Z,7.55
2019-05-11T17:44:08.181Z,7.80
2019-05-11T17:46:38.408Z,9.25
2019-05-11T17:49:08.043Z,10.88
2019-05-11T17:51:37.938Z,9.78
2019-05-11T17:54:08.025Z,6.67
2019-05-11T17:56:38.807Z,9.15
2019-05-11T17:59:08.223Z,8.15
2019-05-11T18:01:37.149Z,6.60
2019-05-11T18:04:08.060Z,5.90
2019-05-11T18:06:38.449Z,5.37
2019-05-11T18:09:08.383Z,8.53
2019-05-11T18:11:38.162Z,10.18
2019-05-11T18:14:08.431Z,6.75
2019-05-11T18:16:37.420Z,11.80
2019-05-11T18:19:08.480Z,8.80
2019-05-11T18:21:38.671Z,7.83
2019-05-11T18:24:09.130Z,12.03
2019-05-11T18:26:38.439Z,9.10
2019-05-11T18:29:07.310Z,11.20
2019-05-11T18:31:38.383Z,7.40
2019-05-11T18:34:08.844Z,7.12
2019-05-11T18:36:38.234Z,7.17
2019-05-11T18:39:08.347Z,7.42
2019-05-11T18:41:39.150Z,8.40
2019-05-11T18:44:11.073Z,5.28
2019-05-11T18:46:40.113Z,7.50
2019-05-11T18:49:08.795Z,6.78
2019-05-11T18:51:38.029Z,8.15
2019-05-11T18:54:09.128Z,8.08
2019-05-11T18:56:38.289Z,6.92
2019-05-11T18:59:08.873Z,7.33
2019-05-11T19:01:38.145Z,7.20
2019-05-11T19:04:07.851Z,7.05
2019-05-11T19:06:37.834Z,8.20
2019-05-11T19:09:09.513Z,13.90
2019-05-11T19:11:38.581Z,10.95
2019-05-11T19:14:08.754Z,10.60
2019-05-11T19:16:39.033Z,7.75
2019-05-11T19:19:08.360Z,7.35
2019-05-11T19:21:37.143Z,6.35
2019-05-11T19:24:09.050Z,5.50
2019-05-11T19:26:36.459Z,16.10
2019-05-11T19:29:05.371Z,14.15
2019-05-11T19:31:34.335Z,15.88
2019-05-11T19:34:03.290Z,7.50
2019-05-11T19:36:31.970Z,11.08
2019-05-11T19:39:00.730Z,11.45
2019-05-11T19:41:29.704Z,7.60
2019-05-11T19:43:58.423Z,7.72
2019-05-11T19:46:28.074Z,12.70
2019-05-11T19:48:58.013Z,7.20
2019-05-11T19:51:29.124Z,14.43
2019-05-11T19:53:57.665Z,6.50
2019-05-11T19:56:28.752Z,8.65
2019-05-11T19:58:57.944Z,9.53
2019-05-11T20:01:27.872Z,11.48
2019-05-11T20:03:57.185Z,10.00
2019-05-11T20:06:28.080Z,13.95
2019-05-11T20:08:58.085Z,6.25
2019-05-11T20:11:27.915Z,7.87
2019-05-11T20:13:58.789Z,10.28
2019-05-11T20:16:27.438Z,10.70
2019-05-11T20:18:57.840Z,7.97
2019-05-11T20:21:28.810Z,8.28
2019-05-11T20:23:57.870Z,9.60
2019-05-11T20:26:28.552Z,8.20
2019-05-11T20:28:58.781Z,7.65
2019-05-11T20:31:27.817Z,7.55
2019-05-11T20:33:56.540Z,7.25
2019-05-11T20:36:25.212Z,7.17
2019-05-11T20:38:54.162Z,9.35
2019-05-11T20:41:22.872Z,5.62
2019-05-11T20:43:51.878Z,11.15
2019-05-11T20:46:20.657Z,9.03
2019-05-11T20:48:49.613Z,10.53
2019-05-11T20:51:32.837Z,7.97
2019-05-11T20:53:49.008Z,9.58
2019-05-11T20:56:17.988Z,8.75
2019-05-11T20:58:59.833Z,13.18
2019-05-11T21:01:29.071Z,6.70
2019-05-11T21:03:58.659Z,13.13
2019-05-11T21:06:29.397Z,10.95
2019-05-11T21:08:58.604Z,8.60
2019-05-11T21:11:27.390Z,10.72
2019-05-11T21:13:56.339Z,11.50
2019-05-11T21:16:25.031Z,8.58
2019-05-11T21:18:54.231Z,9.03
2019-05-11T21:21:23.167Z,8.28
2019-05-11T21:23:52.119Z,10.93
2019-05-11T21:26:21.124Z,11.40
2019-05-11T21:28:49.820Z,10.63
2019-05-11T21:31:18.841Z,11.15
2019-05-11T21:33:48.026Z,9.98
2019-05-11T21:36:18.050Z,13.18
2019-05-11T21:38:52.657Z,9.78
2019-05-11T21:41:21.420Z,15.03
2019-05-11T21:43:50.744Z,9.68
2019-05-11T21:46:19.548Z,13.13
2019-05-11T21:48:48.293Z,11.25
2019-05-11T21:51:18.167Z,7.00
2019-05-11T21:53:48.719Z,9.10
2019-05-11T21:56:18.750Z,7.75
2019-05-11T21:58:47.618Z,9.78
2019-05-11T22:01:20.082Z,11.15
2019-05-11T22:03:47.929Z,8.45
2019-05-11T22:06:20.150Z,10.93
2019-05-11T22:08:50.856Z,10.82
2019-05-11T22:11:19.591Z,7.78
2019-05-11T22:13:50.078Z,8.90
2019-05-11T22:16:18.826Z,11.50
2019-05-11T22:18:48.502Z,13.68
2019-05-11T22:21:18.781Z,9.78
2019-05-11T22:23:50.597Z,8.70
2019-05-11T22:26:18.140Z,10.48
2019-05-11T22:28:48.199Z,11.35
2019-05-11T22:31:18.201Z,19.85
2019-05-11T22:33:48.058Z,12.98
2019-05-11T22:36:17.331Z,7.12
2019-05-11T22:38:48.132Z,9.33
2019-05-11T22:41:18.093Z,10.78
2019-05-11T22:43:48.588Z,13.95
2019-05-11T22:46:17.809Z,11.65
2019-05-11T22:48:48.895Z,11.28
2019-05-11T22:51:18.372Z,9.85
2019-05-11T22:53:50.202Z,11.45
2019-05-11T22:56:19.935Z,13.75
2019-05-11T22:58:50.012Z,12.35
2019-05-11T23:01:18.690Z,10.50
2019-05-11T23:03:47.945Z,13.40
2019-05-11T23:06:18.127Z,12.25
2019-05-11T23:08:48.311Z,7.60
2019-05-11T23:11:18.023Z,9.98
2019-05-11T23:13:47.893Z,10.20
2019-05-11T23:16:18.026Z,10.72
2019-05-11T23:18:48.117Z,10.13
2019-05-11T23:21:16.906Z,12.25
2019-05-11T23:23:47.855Z,11.43
2019-05-11T23:26:17.806Z,13.85
2019-05-11T23:28:48.715Z,10.43
2019-05-11T23:31:17.892Z,11.38
2019-05-11T23:33:46.823Z,10.93
2019-05-11T23:36:15.512Z,9.35
2019-05-11T23:38:44.191Z,9.50
2019-05-11T23:41:24.063Z,9.08
2019-05-11T23:43:43.811Z,8.70
2019-05-11T23:46:12.755Z,13.03
2019-05-11T23:48:41.451Z,15.15
2019-05-11T23:51:10.453Z,11.25
2019-05-11T23:53:39.398Z,10.35
2019-05-11T23:56:08.406Z,11.65
2019-05-11T23:58:39.084Z,11.53
